createdAt,value
2023-04-09T00:01:34.141Z,77.50
2023-04-09T00:04:00.752Z,76.67
2023-04-09T00:06:27.252Z,76.88
2023-04-09T00:08:53.745Z,76.66
2023-04-09T00:11:20.744Z,76.74
2023-04-09T00:13:47.039Z,76.63
2023-04-09T00:16:13.360Z,76.98
2023-04-09T00:18:39.681Z,76.75
2023-04-09T00:21:07.048Z,76.74
2023-04-09T00:23:34.200Z,76.45
2023-04-09T00:26:01.027Z,75.80
2023-04-09T00:28:27.379Z,76.49
2023-04-09T00:30:53.685Z,76.53
2023-04-09T00:33:20.188Z,76.02
2023-04-09T00:35:46.630Z,75.66
2023-04-09T00:38:12.951Z,75.63
2023-04-09T00:40:39.247Z,75.28
2023-04-09T00:43:05.614Z,75.71
2023-04-09T00:45:32.028Z,76.15
2023-04-09T00:47:58.487Z,76.29
2023-04-09T00:50:24.906Z,76.52
2023-04-09T00:52:51.903Z,76.24
2023-04-09T00:55:18.963Z,76.27
2023-04-09T00:57:45.307Z,76.14
2023-04-09T01:00:12.994Z,75.85
2023-04-09T01:02:40.752Z,76.49
2023-04-09T01:05:07.528Z,76.16
2023-04-09T01:08:08.937Z,75.87
2023-04-09T01:11:07.025Z,76.02
2023-04-09T01:13:47.919Z,76.47
2023-04-09T01:16:16.680Z,76.40
2023-04-09T01:18:52.364Z,76.64
2023-04-09T01:21:24.409Z,76.74
2023-04-09T01:24:21.059Z,76.64
2023-04-09T01:27:05.203Z,77.15
2023-04-09T01:29:34.692Z,77.43
2023-04-09T01:32:03.052Z,77.90
2023-04-09T01:34:30.683Z,78.13
2023-04-09T01:36:59.634Z,78.46
2023-04-09T01:39:27.072Z,78.73
2023-04-09T01:41:56.036Z,79.47
2023-04-09T01:44:24.330Z,79.35
2023-04-09T01:46:51.538Z,80.18
2023-04-09T01:49:18.709Z,81.44
2023-04-09T01:51:45.749Z,81.84
2023-04-09T01:54:12.097Z,82.58
2023-04-09T01:56:46.966Z,83.50
2023-04-09T01:59:14.270Z,84.30
2023-04-09T02:02:03.272Z,85.12
2023-04-09T02:04:43.712Z,85.18
2023-04-09T02:07:25.267Z,85.73
2023-04-09T02:09:54.322Z,86.44
2023-04-09T02:12:21.540Z,87.63
2023-04-09T02:14:51.855Z,88.06
2023-04-09T02:17:19.108Z,88.55
2023-04-09T02:19:47.611Z,88.89
2023-04-09T02:22:15.194Z,89.28
2023-04-09T02:24:41.696Z,89.13
2023-04-09T02:27:08.412Z,89.71
2023-04-09T02:29:34.840Z,90.10
2023-04-09T02:32:01.272Z,90.86
2023-04-09T02:34:27.878Z,91.20
2023-04-09T02:36:54.173Z,91.62
2023-04-09T02:39:20.468Z,92.10
2023-04-09T02:41:46.779Z,92.40
2023-04-09T02:44:13.116Z,92.71
2023-04-09T02:46:40.951Z,92.57
2023-04-09T02:49:07.499Z,93.70
2023-04-09T02:51:36.694Z,94.10
2023-04-09T02:54:04.056Z,94.44
2023-04-09T02:56:30.615Z,95.03
2023-04-09T02:58:56.925Z,95.32
2023-04-09T03:01:23.336Z,96.35
2023-04-09T03:03:49.974Z,96.77
2023-04-09T03:06:16.643Z,97.34
2023-04-09T03:08:42.937Z,97.99
2023-04-09T03:11:09.245Z,98.14
2023-04-09T03:13:35.642Z,98.76
2023-04-09T03:16:01.990Z,99.00
2023-04-09T03:18:28.333Z,99.68
2023-04-09T03:20:54.671Z,100.00
2023-04-09T03:23:21.004Z,100.00
2023-04-09T03:25:47.392Z,100.00
2023-04-09T03:28:13.724Z,100.00
2023-04-09T03:30:40.076Z,100.00
2023-04-09T03:33:06.387Z,100.00
2023-04-09T03:35:32.815Z,100.00
2023-04-09T03:37:59.124Z,100.00
2023-04-09T03:40:25.464Z,100.00
2023-04-09T03:42:51.787Z,100.00
2023-04-09T03:45:18.100Z,100.00
2023-04-09T03:47:44.457Z,100.00
2023-04-09T03:50:10.794Z,100.00
2023-04-09T03:52:37.137Z,100.00
2023-04-09T03:55:04.524Z,100.00
2023-04-09T03:57:31.000Z,100.00
2023-04-09T03:59:57.306Z,100.00
2023-04-09T04:02:26.652Z,100.00
2023-04-09T04:04:53.183Z,100.00
2023-04-09T04:07:19.516Z,100.00
2023-04-09T04:09:45.868Z,100.00
2023-04-09T04:12:12.197Z,100.00
2023-04-09T04:14:38.485Z,100.00
2023-04-09T04:17:04.779Z,100.00
2023-04-09T04:19:31.085Z,100.00
2023-04-09T04:21:57.393Z,100.00
2023-04-09T04:24:23.769Z,100.00
2023-04-09T04:26:50.086Z,100.00
2023-04-09T04:29:16.480Z,100.00
2023-04-09T04:31:42.852Z,100.00
2023-04-09T04:34:09.236Z,100.00
2023-04-09T04:36:37.689Z,100.00
2023-04-09T04:39:04.131Z,100.00
2023-04-09T04:41:30.493Z,100.00
2023-04-09T04:43:57.263Z,100.00
2023-04-09T04:46:23.636Z,100.00
2023-04-09T04:48:50.194Z,100.00
2023-04-09T04:51:16.669Z,100.00
2023-04-09T04:53:43.130Z,100.00
2023-04-09T04:56:14.517Z,100.00
2023-04-09T04:58:41.332Z,100.00
2023-04-09T05:01:07.854Z,100.00
2023-04-09T05:03:34.252Z,100.00
2023-04-09T05:06:00.642Z,100.00
2023-04-09T05:08:26.979Z,100.00
2023-04-09T05:10:56.009Z,100.00
2023-04-09T05:13:23.408Z,100.00
2023-04-09T05:15:49.750Z,100.00
2023-04-09T05:18:16.239Z,100.00
2023-04-09T05:20:42.584Z,100.00
2023-04-09T05:23:12.429Z,100.00
2023-04-09T05:25:39.038Z,100.00
2023-04-09T05:28:05.441Z,100.00
2023-04-09T05:30:32.073Z,100.00
2023-04-09T05:32:58.465Z,100.00
2023-04-09T05:35:24.770Z,100.00
2023-04-09T05:37:51.104Z,100.00
2023-04-09T05:40:17.484Z,100.00
2023-04-09T05:42:43.801Z,100.00
2023-04-09T05:45:10.719Z,100.00
2023-04-09T05:47:37.126Z,100.00
2023-04-09T05:50:04.139Z,100.00
2023-04-09T05:52:30.435Z,100.00
2023-04-09T05:54:56.746Z,100.00
2023-04-09T05:57:23.094Z,100.00
2023-04-09T05:59:49.418Z,99.51
2023-04-09T06:02:16.190Z,98.81
2023-04-09T06:04:42.593Z,98.66
2023-04-09T06:07:08.893Z,97.25
2023-04-09T06:09:35.257Z,95.96
2023-04-09T06:12:02.411Z,94.85
2023-04-09T06:14:28.691Z,94.01
2023-04-09T06:16:55.117Z,93.36
2023-04-09T06:19:23.352Z,92.74
2023-04-09T06:21:49.671Z,92.65
2023-04-09T06:24:15.966Z,91.00
2023-04-09T06:26:42.369Z,88.20
2023-04-09T06:29:08.683Z,87.15
2023-04-09T06:31:35.146Z,85.31
2023-04-09T06:34:01.521Z,83.72
2023-04-09T06:36:28.095Z,82.90
2023-04-09T06:38:54.614Z,82.46
2023-04-09T06:41:21.957Z,81.08
2023-04-09T06:43:50.956Z,80.41
2023-04-09T06:46:19.951Z,79.60
2023-04-09T06:48:46.806Z,78.88
2023-04-09T06:51:13.496Z,78.87
2023-04-09T06:53:39.899Z,77.88
2023-04-09T06:56:07.158Z,77.85
2023-04-09T06:58:33.879Z,78.54
2023-04-09T07:01:00.393Z,79.26
2023-04-09T07:03:27.861Z,78.11
2023-04-09T07:05:54.910Z,74.28
2023-04-09T07:08:22.902Z,69.77
2023-04-09T07:10:49.755Z,66.96
2023-04-09T07:13:16.263Z,63.41
2023-04-09T07:15:42.823Z,58.98
2023-04-09T07:18:09.474Z,55.92
2023-04-09T07:20:35.991Z,53.87
2023-04-09T07:23:02.630Z,52.69
2023-04-09T07:25:29.002Z,54.13
2023-04-09T07:27:55.694Z,54.61
2023-04-09T07:30:22.021Z,53.84
2023-04-09T07:32:48.532Z,53.82
2023-04-09T07:35:14.915Z,55.13
2023-04-09T07:37:41.291Z,55.81
2023-04-09T07:40:08.333Z,57.57
2023-04-09T07:42:37.808Z,59.86
2023-04-09T07:45:04.524Z,60.74
2023-04-09T07:47:31.828Z,61.38
2023-04-09T07:49:58.352Z,61.35
2023-04-09T07:52:24.781Z,63.37
2023-04-09T07:54:51.122Z,63.29
2023-04-09T07:57:17.405Z,63.37
2023-04-09T07:59:43.737Z,63.50
2023-04-09T08:02:12.733Z,63.95
2023-04-09T08:04:40.792Z,64.51
2023-04-09T08:07:07.779Z,64.64
2023-04-09T08:09:34.130Z,66.34
2023-04-09T08:12:01.058Z,65.83
2023-04-09T08:14:27.446Z,64.81
2023-04-09T08:16:53.835Z,64.11
2023-04-09T08:19:20.341Z,63.71
2023-04-09T08:21:49.078Z,63.75
2023-04-09T08:24:15.650Z,63.78
2023-04-09T08:26:42.293Z,64.14
2023-04-09T08:29:10.112Z,65.91
2023-04-09T08:31:39.278Z,64.73
2023-04-09T08:34:06.456Z,64.66
2023-04-09T08:36:34.846Z,64.65
2023-04-09T08:39:02.034Z,63.38
2023-04-09T08:41:29.326Z,62.95
2023-04-09T08:43:58.804Z,62.61
2023-04-09T08:46:26.521Z,61.37
2023-04-09T08:48:53.546Z,62.20
2023-04-09T08:51:21.744Z,61.55
2023-04-09T08:53:53.370Z,60.41
2023-04-09T08:56:21.505Z,60.56
2023-04-09T08:58:48.396Z,60.80
2023-04-09T09:01:25.297Z,59.55
2023-04-09T09:04:06.183Z,59.70
2023-04-09T09:06:38.286Z,59.99
2023-04-09T09:09:05.371Z,58.70
2023-04-09T09:11:32.246Z,58.53
2023-04-09T09:14:06.184Z,58.35
2023-04-09T09:16:34.776Z,58.38
2023-04-09T09:19:02.602Z,58.72
2023-04-09T09:21:30.010Z,60.67
2023-04-09T09:23:56.912Z,60.93
2023-04-09T09:26:26.132Z,60.76
2023-04-09T09:28:53.183Z,59.38
2023-04-09T09:31:21.310Z,59.31
2023-04-09T09:33:48.789Z,58.54
2023-04-09T09:36:16.544Z,56.99
2023-04-09T09:38:57.449Z,56.41
2023-04-09T09:41:24.756Z,56.45
2023-04-09T09:43:51.761Z,58.57
2023-04-09T09:46:18.196Z,58.84
2023-04-09T09:48:47.626Z,57.71
2023-04-09T09:51:14.340Z,58.33
2023-04-09T09:53:45.641Z,56.21
2023-04-09T09:56:21.420Z,55.25
2023-04-09T09:59:23.530Z,54.94
2023-04-09T10:02:06.117Z,55.36
2023-04-09T10:04:36.506Z,54.65
2023-04-09T10:07:06.888Z,54.54
2023-04-09T10:09:35.823Z,53.98
2023-04-09T10:12:06.689Z,54.48
2023-04-09T10:14:35.717Z,52.50
2023-04-09T10:17:03.861Z,50.24
2023-04-09T10:19:35.445Z,52.08
2023-04-09T10:22:09.668Z,51.72
2023-04-09T10:24:36.621Z,50.63
2023-04-09T10:27:13.128Z,49.21
2023-04-09T10:29:46.952Z,50.14
2023-04-09T10:32:20.965Z,47.91
2023-04-09T10:34:48.470Z,47.46
2023-04-09T10:37:20.750Z,48.42
2023-04-09T10:39:48.787Z,47.60
2023-04-09T10:42:19.399Z,47.09
2023-04-09T10:44:45.993Z,45.36
2023-04-09T10:47:30.692Z,45.96
2023-04-09T10:49:57.025Z,46.21
2023-04-09T10:52:30.114Z,45.76
2023-04-09T10:54:57.119Z,43.00
2023-04-09T10:57:24.422Z,39.84
2023-04-09T10:59:55.400Z,40.24
2023-04-09T11:02:28.021Z,41.12
2023-04-09T11:05:03.391Z,40.41
2023-04-09T11:07:30.359Z,40.63
2023-04-09T11:09:56.710Z,40.08
2023-04-09T11:12:23.014Z,41.56
2023-04-09T11:14:49.312Z,41.65
2023-04-09T11:17:15.708Z,42.12
2023-04-09T11:19:42.091Z,42.05
2023-04-09T11:22:08.426Z,42.12
2023-04-09T11:24:46.979Z,37.41
2023-04-09T11:27:13.540Z,36.25
2023-04-09T11:29:40.458Z,36.18
2023-04-09T11:32:06.990Z,35.03
2023-04-09T11:34:33.265Z,36.10
2023-04-09T11:37:02.099Z,38.41
2023-04-09T11:39:28.818Z,33.92
2023-04-09T11:41:55.216Z,31.13
2023-04-09T11:44:22.437Z,31.32
2023-04-09T11:46:50.125Z,31.25
2023-04-09T11:49:17.896Z,29.47
2023-04-09T11:51:44.406Z,29.79
2023-04-09T11:54:11.888Z,29.79
2023-04-09T11:56:38.316Z,30.58
2023-04-09T11:59:04.758Z,30.21
2023-04-09T12:01:35.295Z,30.99
2023-04-09T12:04:01.968Z,30.33
2023-04-09T12:06:28.727Z,31.64
2023-04-09T12:08:59.343Z,31.20
2023-04-09T12:11:30.088Z,33.48
2023-04-09T12:14:03.408Z,34.34
2023-04-09T12:16:32.186Z,32.63
2023-04-09T12:19:08.768Z,31.89
2023-04-09T12:21:55.921Z,32.54
2023-04-09T12:24:25.861Z,33.99
2023-04-09T12:26:52.260Z,34.08
2023-04-09T12:29:20.825Z,34.60
2023-04-09T12:31:47.670Z,35.31
2023-04-09T12:34:14.227Z,35.50
2023-04-09T12:36:43.635Z,36.98
2023-04-09T12:39:10.423Z,37.52
2023-04-09T12:41:37.261Z,36.93
2023-04-09T12:44:04.496Z,36.74
2023-04-09T12:46:32.214Z,37.67
2023-04-09T12:48:58.877Z,37.74
2023-04-09T12:51:25.641Z,36.94
2023-04-09T12:53:52.355Z,37.90
2023-04-09T12:56:18.900Z,38.38
2023-04-09T12:58:45.286Z,39.17
2023-04-09T13:01:11.780Z,38.11
2023-04-09T13:03:41.129Z,38.90
2023-04-09T13:06:07.881Z,38.50
2023-04-09T13:08:34.182Z,38.53
2023-04-09T13:11:00.710Z,38.02
2023-04-09T13:13:28.548Z,37.82
2023-04-09T13:15:54.874Z,36.89
2023-04-09T13:18:21.823Z,34.39
2023-04-09T13:20:48.177Z,34.48
2023-04-09T13:23:14.518Z,33.71
2023-04-09T13:25:40.903Z,33.74
2023-04-09T13:28:07.249Z,32.86
2023-04-09T13:30:33.655Z,32.39
2023-04-09T13:33:00.105Z,32.48
2023-04-09T13:35:27.061Z,32.55
2023-04-09T13:37:53.401Z,32.54
2023-04-09T13:40:19.714Z,32.30
2023-04-09T13:42:46.035Z,33.12
2023-04-09T13:45:12.416Z,32.35
2023-04-09T13:47:38.862Z,31.49
2023-04-09T13:50:05.932Z,31.51
2023-04-09T13:52:32.887Z,30.47
2023-04-09T13:54:59.245Z,29.98
2023-04-09T13:57:25.545Z,31.85
2023-04-09T13:59:51.837Z,30.97
2023-04-09T14:02:19.149Z,31.29
2023-04-09T14:04:45.721Z,31.98
2023-04-09T14:07:12.066Z,33.37
2023-04-09T14:09:38.339Z,32.48
2023-04-09T14:12:04.844Z,32.41
2023-04-09T14:14:31.146Z,33.23
2023-04-09T14:16:57.518Z,32.79
2023-04-09T14:19:23.834Z,32.71
2023-04-09T14:21:53.017Z,32.75
2023-04-09T14:24:22.784Z,33.02
2023-04-09T14:26:52.923Z,32.05
2023-04-09T14:29:20.742Z,32.91
2023-04-09T14:31:47.274Z,32.60
2023-04-09T14:34:13.875Z,31.39
2023-04-09T14:36:40.618Z,31.31
2023-04-09T14:39:06.964Z,31.79
2023-04-09T14:41:34.197Z,32.68
2023-04-09T14:44:00.727Z,32.85
2023-04-09T14:46:27.649Z,32.82
2023-04-09T14:48:54.361Z,33.52
2023-04-09T14:51:20.904Z,33.56
2023-04-09T14:53:47.372Z,33.42
2023-04-09T14:56:13.815Z,33.21
2023-04-09T14:58:40.179Z,33.93
2023-04-09T15:01:06.585Z,33.29
2023-04-09T15:03:33.136Z,32.90
2023-04-09T15:05:59.652Z,33.82
2023-04-09T15:08:26.024Z,34.48
2023-04-09T15:10:52.351Z,34.77
2023-04-09T15:13:18.650Z,35.67
2023-04-09T15:15:45.287Z,35.13
2023-04-09T15:18:11.644Z,35.57
2023-04-09T15:20:43.149Z,35.00
2023-04-09T15:23:10.640Z,34.50
2023-04-09T15:25:36.926Z,35.13
2023-04-09T15:28:05.398Z,36.32
2023-04-09T15:30:31.989Z,36.12
2023-04-09T15:32:58.388Z,35.85
2023-04-09T15:35:26.526Z,35.69
2023-04-09T15:37:52.838Z,36.61
2023-04-09T15:40:19.627Z,36.61
2023-04-09T15:42:46.032Z,36.84
2023-04-09T15:45:14.613Z,36.92
2023-04-09T15:47:40.965Z,35.85
2023-04-09T15:50:07.866Z,36.49
2023-04-09T15:52:34.218Z,35.62
2023-04-09T15:55:01.636Z,36.21
2023-04-09T15:57:29.274Z,36.69
2023-04-09T15:59:55.631Z,36.70
2023-04-09T16:02:23.517Z,36.77
2023-04-09T16:04:51.788Z,36.72
2023-04-09T16:07:18.130Z,36.50
2023-04-09T16:09:46.159Z,36.50
2023-04-09T16:12:12.704Z,36.94
2023-04-09T16:14:40.264Z,37.54
2023-04-09T16:17:06.676Z,37.36
2023-04-09T16:19:33.175Z,37.22
2023-04-09T16:21:59.503Z,37.34
2023-04-09T16:24:27.049Z,37.72
2023-04-09T16:26:53.525Z,37.83
2023-04-09T16:29:19.867Z,37.97
2023-04-09T16:31:46.283Z,38.62
2023-04-09T16:34:12.673Z,37.80
2023-04-09T16:36:41.036Z,37.94
2023-04-09T16:39:07.588Z,38.35
2023-04-09T16:41:36.401Z,38.47
2023-04-09T16:44:03.524Z,38.55
2023-04-09T16:46:29.958Z,38.29
2023-04-09T16:48:56.624Z,39.38
2023-04-09T16:51:23.062Z,39.61
2023-04-09T16:53:49.410Z,39.03
2023-04-09T16:56:16.641Z,39.84
2023-04-09T16:58:43.087Z,40.08
2023-04-09T17:01:09.525Z,40.67
2023-04-09T17:03:36.054Z,40.94
2023-04-09T17:06:04.270Z,40.19
2023-04-09T17:08:30.666Z,40.51
2023-04-09T17:11:02.153Z,40.77
2023-04-09T17:13:36.665Z,40.68
2023-04-09T17:16:03.655Z,41.21
2023-04-09T17:18:30.283Z,42.28
2023-04-09T17:20:56.966Z,42.67
2023-04-09T17:23:23.539Z,43.16
2023-04-09T17:25:49.915Z,41.91
2023-04-09T17:28:18.696Z,42.35
2023-04-09T17:30:45.421Z,43.37
2023-04-09T17:33:12.313Z,43.95
2023-04-09T17:35:38.761Z,44.50
2023-04-09T17:38:05.412Z,44.96
2023-04-09T17:40:31.881Z,45.59
2023-04-09T17:42:58.315Z,46.33
2023-04-09T17:45:24.770Z,46.50
2023-04-09T17:47:51.242Z,46.57
2023-04-09T17:50:18.210Z,47.00
2023-04-09T17:52:44.596Z,47.12
2023-04-09T17:55:12.792Z,47.40
2023-04-09T17:57:40.274Z,48.40
2023-04-09T18:00:07.558Z,48.99
2023-04-09T18:02:34.608Z,50.72
2023-04-09T18:05:04.454Z,51.68
2023-04-09T18:07:33.728Z,52.33
2023-04-09T18:10:01.584Z,52.99
2023-04-09T18:12:28.255Z,52.93
2023-04-09T18:14:54.655Z,53.20
2023-04-09T18:17:21.064Z,53.91
2023-04-09T18:19:47.864Z,54.70
2023-04-09T18:22:14.622Z,56.34
2023-04-09T18:24:41.221Z,57.10
2023-04-09T18:27:07.538Z,57.69
2023-04-09T18:29:33.857Z,59.05
2023-04-09T18:32:00.181Z,58.33
2023-04-09T18:34:26.618Z,59.61
2023-04-09T18:36:53.886Z,61.12
2023-04-09T18:39:22.511Z,61.93
2023-04-09T18:41:49.103Z,62.39
2023-04-09T18:44:16.371Z,62.67
2023-04-09T18:46:42.852Z,63.72
2023-04-09T18:49:09.831Z,61.47
2023-04-09T18:51:36.142Z,61.72
2023-04-09T18:54:02.674Z,62.76
2023-04-09T18:56:29.284Z,64.41
2023-04-09T18:58:55.787Z,65.30
2023-04-09T19:01:23.001Z,65.36
2023-04-09T19:03:49.544Z,65.87
2023-04-09T19:06:19.413Z,66.70
2023-04-09T19:08:47.296Z,68.53
2023-04-09T19:11:14.282Z,68.16
2023-04-09T19:13:40.752Z,67.62
2023-04-09T19:16:09.086Z,67.17
2023-04-09T19:18:36.624Z,66.66
2023-04-09T19:21:03.073Z,66.65
2023-04-09T19:23:29.922Z,66.53
2023-04-09T19:25:56.343Z,66.97
2023-04-09T19:28:22.955Z,68.02
2023-04-09T19:30:52.942Z,68.89
2023-04-09T19:33:24.673Z,69.90
2023-04-09T19:35:52.167Z,70.42
2023-04-09T19:38:19.073Z,70.49
2023-04-09T19:40:46.147Z,70.92
2023-04-09T19:43:13.342Z,72.10
2023-04-09T19:45:40.804Z,71.61
2023-04-09T19:48:07.422Z,71.72
2023-04-09T19:50:38.738Z,71.60
2023-04-09T19:53:05.908Z,70.96
2023-04-09T19:55:33.243Z,71.09
2023-04-09T19:57:59.640Z,71.58
2023-04-09T20:00:26.557Z,72.66
2023-04-09T20:02:53.389Z,73.73
2023-04-09T20:05:23.010Z,73.11
2023-04-09T20:07:50.198Z,74.96
2023-04-09T20:10:16.937Z,74.89
2023-04-09T20:12:47.351Z,74.58
2023-04-09T20:15:13.719Z,75.58
2023-04-09T20:17:41.709Z,76.29
2023-04-09T20:20:08.262Z,78.09
2023-04-09T20:22:34.647Z,78.88
2023-04-09T20:25:01.545Z,79.53
2023-04-09T20:27:28.057Z,78.85
2023-04-09T20:29:54.393Z,80.05
2023-04-09T20:32:20.909Z,80.68
2023-04-09T20:34:47.367Z,80.74
2023-04-09T20:37:13.760Z,81.53
2023-04-09T20:39:40.408Z,82.85
2023-04-09T20:42:06.748Z,83.58
2023-04-09T20:44:33.048Z,84.21
2023-04-09T20:46:59.377Z,85.04
2023-04-09T20:49:25.739Z,85.64
2023-04-09T20:51:52.062Z,85.88
2023-04-09T20:54:21.272Z,85.73
2023-04-09T20:56:47.624Z,83.84
2023-04-09T20:59:15.190Z,83.67
2023-04-09T21:01:41.563Z,82.27
2023-04-09T21:04:08.715Z,82.05
2023-04-09T21:06:35.395Z,81.45
2023-04-09T21:09:01.694Z,82.00
2023-04-09T21:11:28.932Z,82.35
2023-04-09T21:13:55.815Z,82.78
2023-04-09T21:16:22.920Z,82.81
2023-04-09T21:18:49.996Z,82.98
2023-04-09T21:21:16.536Z,83.04
2023-04-09T21:23:42.869Z,82.26
2023-04-09T21:26:09.961Z,82.13
2023-04-09T21:28:36.323Z,81.21
2023-04-09T21:31:02.991Z,81.16
2023-04-09T21:33:30.146Z,82.80
2023-04-09T21:35:57.012Z,84.72
2023-04-09T21:38:23.434Z,85.65
2023-04-09T21:40:49.799Z,85.94
2023-04-09T21:43:16.523Z,86.69
2023-04-09T21:45:42.852Z,87.10
2023-04-09T21:48:09.367Z,87.96
2023-04-09T21:50:35.891Z,88.08
2023-04-09T21:53:03.083Z,88.29
2023-04-09T21:55:29.551Z,88.17
2023-04-09T21:57:56.115Z,88.59
2023-04-09T22:00:22.564Z,89.51
2023-04-09T22:02:49.000Z,90.49
2023-04-09T22:05:15.549Z,91.07
2023-04-09T22:07:42.381Z,91.54
2023-04-09T22:10:09.208Z,91.10
2023-04-09T22:12:37.098Z,90.90
2023-04-09T22:15:04.929Z,91.05
2023-04-09T22:17:31.341Z,91.64
2023-04-09T22:19:58.448Z,92.46
2023-04-09T22:22:24.773Z,93.02
2023-04-09T22:24:51.431Z,93.38
2023-04-09T22:27:17.768Z,94.66
2023-04-09T22:29:44.156Z,95.11
2023-04-09T22:32:10.545Z,96.22
2023-04-09T22:34:37.074Z,96.47
2023-04-09T22:37:03.424Z,96.88
2023-04-09T22:39:29.771Z,97.06
2023-04-09T22:41:56.129Z,95.62
2023-04-09T22:44:22.476Z,94.67
2023-04-09T22:46:48.912Z,95.08
2023-04-09T22:49:15.696Z,95.44
2023-04-09T22:51:42.521Z,95.99
2023-04-09T22:54:09.164Z,96.80
2023-04-09T22:56:36.532Z,97.78
2023-04-09T22:59:03.002Z,98.15
2023-04-09T23:01:29.677Z,98.85
2023-04-09T23:03:56.244Z,98.85
2023-04-09T23:06:24.340Z,98.32
2023-04-09T23:08:50.755Z,98.58
2023-04-09T23:11:17.338Z,99.23
2023-04-09T23:13:43.734Z,99.48
2023-04-09T23:16:10.437Z,99.15
2023-04-09T23:18:37.322Z,99.26
2023-04-09T23:21:07.756Z,99.92
2023-04-09T23:23:35.283Z,99.75
2023-04-09T23:26:02.330Z,98.29
2023-04-09T23:28:29.055Z,97.98
2023-04-09T23:30:55.664Z,97.58
2023-04-09T23:33:22.244Z,97.39
2023-04-09T23:35:49.004Z,96.18
2023-04-09T23:38:15.748Z,96.00
2023-04-09T23:40:42.529Z,95.38
2023-04-09T23:43:09.088Z,95.96
2023-04-09T23:45:35.522Z,96.48
2023-04-09T23:48:03.188Z,96.06
2023-04-09T23:50:30.248Z,94.68
2023-04-09T23:52:59.768Z,93.50
2023-04-09T23:55:27.086Z,93.67
2023-04-09T23:57:53.553Z,92.64
